Rio Negro, Brazil
Current Conditions -  °F | °C
As of 4:00 AM on Tuesday 27 Jan 2015 (Local Time) from SBCT Reporting Station
Clear Clear  
Wind Chill: 66°   Ceiling: Unl
Heat Index: 66°   Visibility: 6mi
Dew Point: 63°   Wind: 0mph
Humidity: 88%   Direction: NA
Pressure: 30.03"   Gusts: NA
Location:  26.11°S, 49.8°W
Report Text: SBCT 270600Z 00000KT CAVOK 19/17 Q1017
Loading
Personal Weather Stations






























Interactive Weather Map New forecast layout! Learn more

10-Day Weather Forecast

Advertisements
Track Severe Weather on mobile